createdAt,value
2023-05-10T00:00:41.567Z,0.20
2023-05-10T00:03:08.724Z,0.30
2023-05-10T00:05:35.918Z,0.40
2023-05-10T00:08:02.792Z,0.20
2023-05-10T00:10:29.709Z,0.40
2023-05-10T00:12:56.651Z,0.30
2023-05-10T00:15:23.695Z,0.30
2023-05-10T00:17:50.786Z,0.20
2023-05-10T00:20:18.160Z,0.30
2023-05-10T00:22:45.381Z,0.20
2023-05-10T00:25:12.451Z,0.30
2023-05-10T00:27:39.405Z,0.30
2023-05-10T00:30:07.339Z,0.20
2023-05-10T00:32:35.885Z,0.20
2023-05-10T00:35:03.020Z,0.30
2023-05-10T00:37:30.035Z,0.30
2023-05-10T00:39:57.084Z,0.30
2023-05-10T00:42:24.037Z,0.30
2023-05-10T00:44:53.462Z,0.30
2023-05-10T00:47:20.724Z,0.20
2023-05-10T00:49:47.778Z,0.30
2023-05-10T00:52:15.180Z,0.20
2023-05-10T00:54:42.212Z,0.20
2023-05-10T00:57:09.702Z,0.30
2023-05-10T00:59:36.883Z,0.30
2023-05-10T01:02:04.235Z,0.30
2023-05-10T01:04:31.566Z,0.30
2023-05-10T01:06:58.738Z,0.30
2023-05-10T01:09:27.407Z,0.30
2023-05-10T01:11:57.503Z,0.30
2023-05-10T01:14:25.894Z,0.20
2023-05-10T01:16:54.302Z,0.23
2023-05-10T01:19:24.984Z,0.23
2023-05-10T01:22:13.629Z,0.30
2023-05-10T01:25:00.567Z,0.30
2023-05-10T01:27:34.120Z,0.30
2023-05-10T01:30:22.233Z,0.20
2023-05-10T01:33:06.245Z,0.30
2023-05-10T01:35:51.825Z,0.30
2023-05-10T01:38:27.525Z,0.50
2023-05-10T01:41:26.050Z,0.30
2023-05-10T01:44:30.649Z,0.30
2023-05-10T01:47:07.240Z,0.20
2023-05-10T01:49:42.248Z,0.25
2023-05-10T01:52:12.980Z,0.20
2023-05-10T01:55:02.583Z,0.20
2023-05-10T01:57:34.754Z,0.20
2023-05-10T02:00:04.741Z,0.30
2023-05-10T02:02:46.235Z,0.52
2023-05-10T02:05:15.471Z,1.00
2023-05-10T02:07:43.408Z,0.20
2023-05-10T02:10:12.562Z,0.30
2023-05-10T02:12:44.426Z,0.20
2023-05-10T02:15:13.932Z,0.30
2023-05-10T02:17:43.305Z,0.30
2023-05-10T02:20:11.385Z,0.30
2023-05-10T02:22:40.124Z,0.30
2023-05-10T02:25:10.009Z,0.30
2023-05-10T02:27:38.335Z,0.30
2023-05-10T02:30:08.696Z,0.30
2023-05-10T02:32:36.357Z,0.30
2023-05-10T02:35:04.889Z,0.30
2023-05-10T02:37:33.313Z,0.22
2023-05-10T02:40:06.384Z,0.30
2023-05-10T02:42:38.089Z,0.35
2023-05-10T02:45:11.818Z,0.20
2023-05-10T02:47:39.383Z,0.30
2023-05-10T02:50:06.938Z,0.20
2023-05-10T02:52:43.524Z,0.30
2023-05-10T02:55:14.582Z,0.30
2023-05-10T02:57:50.829Z,0.30
2023-05-10T03:00:18.211Z,0.30
2023-05-10T03:02:45.314Z,0.30
2023-05-10T03:05:12.308Z,0.30
2023-05-10T03:07:39.405Z,0.30
2023-05-10T03:10:07.180Z,0.40
2023-05-10T03:13:17.636Z,0.20
2023-05-10T03:15:56.478Z,0.30
2023-05-10T03:18:29.421Z,0.37
2023-05-10T03:21:00.800Z,0.30
2023-05-10T03:23:35.067Z,0.30
2023-05-10T03:26:03.761Z,0.32
2023-05-10T03:28:32.607Z,0.40
2023-05-10T03:31:00.727Z,0.30
2023-05-10T03:33:27.993Z,0.20
2023-05-10T03:35:54.997Z,0.20
2023-05-10T03:38:22.062Z,0.40
2023-05-10T03:40:49.072Z,0.30
2023-05-10T03:43:16.145Z,0.30
2023-05-10T03:45:43.148Z,0.30
2023-05-10T03:48:10.247Z,0.20
2023-05-10T03:50:37.155Z,0.32
2023-05-10T03:53:04.574Z,0.30
2023-05-10T03:55:35.485Z,0.35
2023-05-10T03:58:02.620Z,0.50
2023-05-10T04:00:29.683Z,0.30
2023-05-10T04:02:57.128Z,0.30
2023-05-10T04:05:24.038Z,0.20
2023-05-10T04:07:53.214Z,0.30
2023-05-10T04:10:20.531Z,0.30
2023-05-10T04:12:47.542Z,0.30
2023-05-10T04:15:14.668Z,0.27
2023-05-10T04:17:41.646Z,0.20
2023-05-10T04:20:09.375Z,0.30
2023-05-10T04:22:36.413Z,0.30
2023-05-10T04:25:03.482Z,0.30
2023-05-10T04:27:30.377Z,0.30
2023-05-10T04:29:57.451Z,0.30
2023-05-10T04:32:24.600Z,0.30
2023-05-10T04:34:54.431Z,0.20
2023-05-10T04:37:22.420Z,0.27
2023-05-10T04:39:49.443Z,0.30
2023-05-10T04:42:16.483Z,0.40
2023-05-10T04:44:43.626Z,0.32
2023-05-10T04:47:12.588Z,0.30
2023-05-10T04:49:39.712Z,0.20
2023-05-10T04:52:06.738Z,0.30
2023-05-10T04:54:33.677Z,0.40
2023-05-10T04:57:00.614Z,0.30
2023-05-10T04:59:27.600Z,0.30
2023-05-10T05:01:54.651Z,0.20
2023-05-10T05:04:21.592Z,0.20
2023-05-10T05:06:48.541Z,0.20
2023-05-10T05:09:15.526Z,0.30
2023-05-10T05:11:42.520Z,0.30
2023-05-10T05:14:09.470Z,0.20
2023-05-10T05:16:36.857Z,0.30
2023-05-10T05:19:04.065Z,0.30
2023-05-10T05:21:31.069Z,0.30
2023-05-10T05:23:58.040Z,0.30
2023-05-10T05:26:25.054Z,0.30
2023-05-10T05:28:54.891Z,0.30
2023-05-10T05:31:22.161Z,0.30
2023-05-10T05:33:49.169Z,0.20
2023-05-10T05:36:16.095Z,0.30
2023-05-10T05:38:44.088Z,0.30
2023-05-10T05:41:11.057Z,0.30
2023-05-10T05:43:38.599Z,0.30
2023-05-10T05:46:05.929Z,0.40
2023-05-10T05:48:32.873Z,0.20
2023-05-10T05:50:59.974Z,0.20
2023-05-10T05:53:27.245Z,0.20
2023-05-10T05:55:58.766Z,0.20
2023-05-10T05:58:26.964Z,0.30
2023-05-10T06:00:53.946Z,0.30
2023-05-10T06:03:21.338Z,0.30
2023-05-10T06:05:49.435Z,0.35
2023-05-10T06:08:16.477Z,0.30
2023-05-10T06:10:43.638Z,0.30
2023-05-10T06:13:10.989Z,0.30
2023-05-10T06:15:38.413Z,0.20
2023-05-10T06:18:05.443Z,0.40
2023-05-10T06:20:32.661Z,0.30
2023-05-10T06:22:59.956Z,15.50
2023-05-10T06:25:27.116Z,0.30
2023-05-10T06:27:58.171Z,0.30
2023-05-10T06:30:28.573Z,0.30
2023-05-10T06:32:56.500Z,0.30
2023-05-10T06:35:23.752Z,0.30
2023-05-10T06:37:51.739Z,0.20
2023-05-10T06:40:19.835Z,0.30
2023-05-10T06:42:47.790Z,0.35
2023-05-10T06:45:16.309Z,0.30
2023-05-10T06:47:43.889Z,0.30
2023-05-10T06:50:12.525Z,0.30
2023-05-10T06:52:39.855Z,0.30
2023-05-10T06:55:07.581Z,0.20
2023-05-10T06:57:34.749Z,0.30
2023-05-10T07:00:01.872Z,0.28
2023-05-10T07:02:29.403Z,0.30
2023-05-10T07:04:56.665Z,0.30
2023-05-10T07:07:23.818Z,0.28
2023-05-10T07:09:51.227Z,0.30
2023-05-10T07:12:18.532Z,0.30
2023-05-10T07:14:45.633Z,0.30
2023-05-10T07:17:12.836Z,0.30
2023-05-10T07:19:39.808Z,0.20
2023-05-10T07:22:06.759Z,0.30
2023-05-10T07:24:34.432Z,0.30
2023-05-10T07:27:01.431Z,0.30
2023-05-10T07:29:28.459Z,0.30
2023-05-10T07:31:58.023Z,0.30
2023-05-10T07:34:26.124Z,0.30
2023-05-10T07:36:53.988Z,0.30
2023-05-10T07:39:27.622Z,0.20
2023-05-10T07:41:56.287Z,0.20
2023-05-10T07:44:23.659Z,0.20
2023-05-10T07:46:50.802Z,0.30
2023-05-10T07:49:17.850Z,0.20
2023-05-10T07:51:44.950Z,0.20
2023-05-10T07:54:11.903Z,0.20
2023-05-10T07:56:39.017Z,0.20
2023-05-10T07:59:08.145Z,0.22
2023-05-10T08:01:36.252Z,0.20
2023-05-10T08:04:03.524Z,0.13
2023-05-10T08:06:31.360Z,0.10
2023-05-10T08:08:58.745Z,0.10
2023-05-10T08:11:26.093Z,0.20
2023-05-10T08:13:54.677Z,0.30
2023-05-10T08:16:24.170Z,0.10
2023-05-10T08:18:51.961Z,0.20
2023-05-10T08:21:19.445Z,0.20
2023-05-10T08:23:46.432Z,0.20
2023-05-10T08:26:13.436Z,0.10
2023-05-10T08:28:41.013Z,0.20
2023-05-10T08:31:08.078Z,0.17
2023-05-10T08:33:35.091Z,0.20
2023-05-10T08:36:01.982Z,0.40
2023-05-10T08:38:28.982Z,0.13
2023-05-10T08:41:00.139Z,0.63
2023-05-10T08:43:30.234Z,0.20
2023-05-10T08:45:57.942Z,0.10
2023-05-10T08:48:26.032Z,0.10
2023-05-10T08:50:58.523Z,0.20
2023-05-10T08:53:28.214Z,0.10
2023-05-10T08:55:56.574Z,0.20
2023-05-10T08:58:23.801Z,0.10
2023-05-10T09:00:52.461Z,0.20
2023-05-10T09:03:19.505Z,0.20
2023-05-10T09:05:47.120Z,0.10
2023-05-10T09:08:17.403Z,0.20
2023-05-10T09:10:49.311Z,0.20
2023-05-10T09:13:16.772Z,1.77
2023-05-10T09:15:46.017Z,0.20
2023-05-10T09:18:13.984Z,0.30
2023-05-10T09:20:41.596Z,0.20
2023-05-10T09:23:08.968Z,0.20
2023-05-10T09:25:36.103Z,0.90
2023-05-10T09:28:03.352Z,0.20
2023-05-10T09:30:31.768Z,0.10
2023-05-10T09:33:00.588Z,0.10
2023-05-10T09:35:30.348Z,0.10
2023-05-10T09:38:01.718Z,0.20
2023-05-10T09:40:30.318Z,0.10
2023-05-10T09:43:00.159Z,0.20
2023-05-10T09:45:31.637Z,0.20
2023-05-10T09:48:00.316Z,0.20
2023-05-10T09:50:27.858Z,0.20
2023-05-10T09:53:00.370Z,0.63
2023-05-10T09:55:38.713Z,0.10
2023-05-10T09:58:07.885Z,0.10
2023-05-10T10:00:38.860Z,0.20
2023-05-10T10:03:06.529Z,0.10
2023-05-10T10:05:37.121Z,0.20
2023-05-10T10:08:05.736Z,0.20
2023-05-10T10:10:34.219Z,2.65
2023-05-10T10:13:01.420Z,0.57
2023-05-10T10:15:28.419Z,0.20
2023-05-10T10:17:55.614Z,0.28
2023-05-10T10:20:23.759Z,0.10
2023-05-10T10:22:50.725Z,0.20
2023-05-10T10:25:19.869Z,0.25
2023-05-10T10:27:53.265Z,0.77
2023-05-10T10:30:43.630Z,0.15
2023-05-10T10:33:37.506Z,0.10
2023-05-10T10:36:05.390Z,0.20
2023-05-10T10:39:01.958Z,0.20
2023-05-10T10:41:41.886Z,0.57
2023-05-10T10:44:27.165Z,0.20
2023-05-10T10:47:13.136Z,0.20
2023-05-10T10:49:43.275Z,0.20
2023-05-10T10:52:35.213Z,0.20
2023-05-10T10:55:05.211Z,0.25
2023-05-10T10:57:45.716Z,0.17
2023-05-10T11:00:19.791Z,0.20
2023-05-10T11:02:49.963Z,0.20
2023-05-10T11:05:40.273Z,0.20
2023-05-10T11:08:17.220Z,0.20
2023-05-10T11:10:53.225Z,0.20
2023-05-10T11:13:33.295Z,0.10
2023-05-10T11:16:10.918Z,0.20
2023-05-10T11:18:38.863Z,0.20
2023-05-10T11:21:10.339Z,0.88
2023-05-10T11:23:45.954Z,0.10
2023-05-10T11:26:13.098Z,0.20
2023-05-10T11:28:50.193Z,0.10
2023-05-10T11:31:18.905Z,0.20
2023-05-10T11:33:47.319Z,0.10
2023-05-10T11:36:16.938Z,0.10
2023-05-10T11:38:44.245Z,0.20
2023-05-10T11:41:12.586Z,0.20
2023-05-10T11:43:43.516Z,0.20
2023-05-10T11:46:14.995Z,0.28
2023-05-10T11:48:42.931Z,0.20
2023-05-10T11:51:11.504Z,0.20
2023-05-10T11:53:39.275Z,9.52
2023-05-10T11:56:12.708Z,0.10
2023-05-10T11:58:40.708Z,0.30
2023-05-10T12:01:10.063Z,0.20
2023-05-10T12:03:37.769Z,3.30
2023-05-10T12:06:05.299Z,0.20
2023-05-10T12:08:32.302Z,0.20
2023-05-10T12:11:08.062Z,0.28
2023-05-10T12:13:40.487Z,0.30
2023-05-10T12:16:20.449Z,1.55
2023-05-10T12:18:56.872Z,0.20
2023-05-10T12:21:24.136Z,0.20
2023-05-10T12:23:56.590Z,0.20
2023-05-10T12:26:25.533Z,0.20
2023-05-10T12:28:52.529Z,0.20
2023-05-10T12:31:19.725Z,0.30
2023-05-10T12:33:48.406Z,0.20
2023-05-10T12:36:16.637Z,0.20
2023-05-10T12:38:45.485Z,0.20
2023-05-10T12:41:14.317Z,0.50
2023-05-10T12:43:41.748Z,0.20
2023-05-10T12:46:13.829Z,0.30
2023-05-10T12:48:42.172Z,0.20
2023-05-10T12:51:10.595Z,0.20
2023-05-10T12:53:37.824Z,0.20
2023-05-10T12:56:05.155Z,0.30
2023-05-10T12:58:36.011Z,23.75
2023-05-10T13:01:04.202Z,32.00
2023-05-10T13:03:34.341Z,23.73
2023-05-10T13:06:01.500Z,22.30
2023-05-10T13:08:30.719Z,24.92
2023-05-10T13:10:57.709Z,23.25
2023-05-10T13:13:24.703Z,24.08
2023-05-10T13:15:51.625Z,24.05
2023-05-10T13:18:19.148Z,31.65
2023-05-10T13:20:46.228Z,26.50
2023-05-10T13:23:13.234Z,27.17
2023-05-10T13:25:40.355Z,28.25
2023-05-10T13:28:07.293Z,27.88
2023-05-10T13:30:34.291Z,29.00
2023-05-10T13:33:01.290Z,29.25
2023-05-10T13:35:28.215Z,28.75
2023-05-10T13:37:57.804Z,27.90
2023-05-10T13:40:24.833Z,29.05
2023-05-10T13:42:51.936Z,30.10
2023-05-10T13:45:19.430Z,27.60
2023-05-10T13:47:46.589Z,23.08
2023-05-10T13:50:13.612Z,22.17
2023-05-10T13:52:40.568Z,24.30
2023-05-10T13:55:07.877Z,22.65
2023-05-10T13:57:36.775Z,19.35
2023-05-10T14:00:04.119Z,18.85
2023-05-10T14:02:35.523Z,18.10
2023-05-10T14:05:03.523Z,15.93
2023-05-10T14:07:30.852Z,20.10
2023-05-10T14:09:57.787Z,21.23
2023-05-10T14:12:24.695Z,15.32
2023-05-10T14:14:51.791Z,15.35
2023-05-10T14:17:18.991Z,11.85
2023-05-10T14:19:46.000Z,13.65
2023-05-10T14:22:12.957Z,13.88
2023-05-10T14:24:39.894Z,14.45
2023-05-10T14:27:07.076Z,14.35
2023-05-10T14:29:34.123Z,11.65
2023-05-10T14:32:01.244Z,11.52
2023-05-10T14:34:28.181Z,13.45
2023-05-10T14:36:55.201Z,11.55
2023-05-10T14:39:22.222Z,11.43
2023-05-10T14:41:49.462Z,9.80
2023-05-10T14:44:16.523Z,10.20
2023-05-10T14:46:43.569Z,12.85
2023-05-10T14:49:10.501Z,10.40
2023-05-10T14:51:37.937Z,12.05
2023-05-10T14:54:04.955Z,8.93
2023-05-10T14:56:32.360Z,11.07
2023-05-10T14:59:00.228Z,11.65
2023-05-10T15:01:27.822Z,9.88
2023-05-10T15:03:55.201Z,10.88
2023-05-10T15:06:32.781Z,9.80
2023-05-10T15:08:59.895Z,10.80
2023-05-10T15:11:27.006Z,12.13
2023-05-10T15:13:54.438Z,13.43
2023-05-10T15:16:21.525Z,14.18
2023-05-10T15:18:49.440Z,13.40
2023-05-10T15:21:16.431Z,12.63
2023-05-10T15:23:43.388Z,14.32
2023-05-10T15:26:10.449Z,15.20
2023-05-10T15:28:37.408Z,17.25
2023-05-10T15:31:04.650Z,13.77
2023-05-10T15:33:31.668Z,13.82
2023-05-10T15:35:58.568Z,18.73
2023-05-10T15:38:25.488Z,14.80
2023-05-10T15:40:56.003Z,14.02
2023-05-10T15:43:23.089Z,14.70
2023-05-10T15:45:50.319Z,15.00
2023-05-10T15:48:17.438Z,16.85
2023-05-10T15:50:44.928Z,15.98
2023-05-10T15:53:11.892Z,16.35
2023-05-10T15:55:38.840Z,18.38
2023-05-10T15:58:05.781Z,18.85
2023-05-10T16:00:32.753Z,15.85
2023-05-10T16:02:59.874Z,18.17
2023-05-10T16:05:30.001Z,26.30
2023-05-10T16:07:56.996Z,21.23
2023-05-10T16:10:25.257Z,22.40
2023-05-10T16:12:53.120Z,16.48
2023-05-10T16:15:21.823Z,15.52
2023-05-10T16:17:49.004Z,19.70
2023-05-10T16:20:16.083Z,18.52
2023-05-10T16:22:44.473Z,16.17
2023-05-10T16:25:13.533Z,15.15
2023-05-10T16:27:41.041Z,15.90
2023-05-10T16:30:08.710Z,13.07
2023-05-10T16:32:35.904Z,14.10
2023-05-10T16:35:02.863Z,15.35
2023-05-10T16:37:29.772Z,15.65
2023-05-10T16:39:56.783Z,17.65
2023-05-10T16:42:30.478Z,14.20
2023-05-10T16:44:57.495Z,17.08
2023-05-10T16:47:26.812Z,15.52
2023-05-10T16:49:53.999Z,15.88
2023-05-10T16:52:21.417Z,12.98
2023-05-10T16:54:48.397Z,13.38
2023-05-10T16:57:15.466Z,12.27
2023-05-10T16:59:42.353Z,13.05
2023-05-10T17:02:09.423Z,11.60
2023-05-10T17:04:36.507Z,11.15
2023-05-10T17:07:03.662Z,13.88
2023-05-10T17:09:30.906Z,11.18
2023-05-10T17:11:57.961Z,14.07
2023-05-10T17:14:24.937Z,12.50
2023-05-10T17:16:53.206Z,14.27
2023-05-10T17:19:20.491Z,12.40
2023-05-10T17:21:47.538Z,14.40
2023-05-10T17:24:14.753Z,15.15
2023-05-10T17:26:42.206Z,16.33
2023-05-10T17:29:09.166Z,15.10
2023-05-10T17:31:36.142Z,14.45
2023-05-10T17:34:05.423Z,14.60
2023-05-10T17:36:33.397Z,14.90
2023-05-10T17:39:01.053Z,17.15
2023-05-10T17:41:28.003Z,14.38
2023-05-10T17:43:55.111Z,16.17
2023-05-10T17:46:22.547Z,16.95
2023-05-10T17:48:50.696Z,17.35
2023-05-10T17:51:17.656Z,19.13
2023-05-10T17:53:44.723Z,18.92
2023-05-10T17:56:11.990Z,14.70
2023-05-10T17:58:39.011Z,14.00
2023-05-10T18:01:06.149Z,14.55
2023-05-10T18:03:33.950Z,12.82
2023-05-10T18:06:01.119Z,12.48
2023-05-10T18:08:30.471Z,11.90
2023-05-10T18:10:57.677Z,14.52
2023-05-10T18:13:25.620Z,11.88
2023-05-10T18:15:52.910Z,13.70
2023-05-10T18:18:20.085Z,14.93
2023-05-10T18:20:47.154Z,14.05
2023-05-10T18:23:15.315Z,14.45
2023-05-10T18:25:42.634Z,11.95
2023-05-10T18:28:09.982Z,14.43
2023-05-10T18:30:37.940Z,17.33
2023-05-10T18:33:04.819Z,15.68
2023-05-10T18:35:31.839Z,17.23
2023-05-10T18:37:59.192Z,16.02
2023-05-10T18:40:27.632Z,13.40
2023-05-10T18:42:54.705Z,14.85
2023-05-10T18:45:21.633Z,14.25
2023-05-10T18:47:48.676Z,14.85
2023-05-10T18:50:17.199Z,12.52
2023-05-10T18:52:44.174Z,11.95
2023-05-10T18:55:11.075Z,11.55
2023-05-10T18:57:41.455Z,10.55
2023-05-10T19:00:10.844Z,8.75
2023-05-10T19:02:39.132Z,9.63
2023-05-10T19:05:06.962Z,9.63
2023-05-10T19:07:34.103Z,9.30
2023-05-10T19:10:01.171Z,12.38
2023-05-10T19:12:28.591Z,10.15
2023-05-10T19:14:55.537Z,8.15
2023-05-10T19:17:23.340Z,10.23
2023-05-10T19:19:50.905Z,12.07
2023-05-10T19:22:21.433Z,9.70
2023-05-10T19:24:55.677Z,10.23
2023-05-10T19:27:22.604Z,8.43
2023-05-10T19:29:49.823Z,11.97
2023-05-10T19:32:19.510Z,12.23
2023-05-10T19:34:46.385Z,16.20
2023-05-10T19:37:13.341Z,12.97
2023-05-10T19:39:40.443Z,13.03
2023-05-10T19:42:07.567Z,15.97
2023-05-10T19:44:34.687Z,15.23
2023-05-10T19:47:01.625Z,17.57
2023-05-10T19:49:29.085Z,19.23
2023-05-10T19:51:58.648Z,23.53
2023-05-10T19:54:25.635Z,21.43
2023-05-10T19:56:52.597Z,22.47
2023-05-10T19:59:19.590Z,30.47
2023-05-10T20:01:46.783Z,28.63
2023-05-10T20:04:13.791Z,14.23
2023-05-10T20:06:40.801Z,28.13
2023-05-10T20:09:08.063Z,27.07
2023-05-10T20:11:34.927Z,29.50
2023-05-10T20:14:01.939Z,29.23
2023-05-10T20:16:29.069Z,30.30
2023-05-10T20:18:56.244Z,33.27
2023-05-10T20:21:23.983Z,35.10
2023-05-10T20:23:50.965Z,35.17
2023-05-10T20:26:17.954Z,32.20
2023-05-10T20:28:44.979Z,29.67
2023-05-10T20:31:12.170Z,39.23
2023-05-10T20:33:39.147Z,35.33
2023-05-10T20:36:08.250Z,34.10
2023-05-10T20:38:35.803Z,35.47
2023-05-10T20:41:02.782Z,32.63
2023-05-10T20:43:29.853Z,37.20
2023-05-10T20:45:56.970Z,35.23
2023-05-10T20:48:23.911Z,37.13
2023-05-10T20:50:51.827Z,32.37
2023-05-10T20:53:18.891Z,37.73
2023-05-10T20:55:45.880Z,39.13
2023-05-10T20:58:15.228Z,39.50
2023-05-10T21:00:42.148Z,39.40
2023-05-10T21:03:09.181Z,42.03
2023-05-10T21:05:36.248Z,41.87
2023-05-10T21:08:03.317Z,44.03
2023-05-10T21:10:30.397Z,39.63
2023-05-10T21:12:57.419Z,42.27
2023-05-10T21:15:25.580Z,40.37
2023-05-10T21:17:54.032Z,42.10
2023-05-10T21:20:21.256Z,41.57
2023-05-10T21:22:48.130Z,39.17
2023-05-10T21:25:15.052Z,38.27
2023-05-10T21:27:41.938Z,43.00
2023-05-10T21:30:10.184Z,41.73
2023-05-10T21:32:37.238Z,42.67
2023-05-10T21:35:05.403Z,35.53
2023-05-10T21:37:32.340Z,46.90
2023-05-10T21:39:59.380Z,43.03
2023-05-10T21:42:26.444Z,44.10
2023-05-10T21:44:53.708Z,32.63
2023-05-10T21:47:20.779Z,31.70
2023-05-10T21:49:47.896Z,29.03
2023-05-10T21:52:14.971Z,35.90
2023-05-10T21:54:42.058Z,32.17
2023-05-10T21:57:09.010Z,37.17
2023-05-10T21:59:36.034Z,38.50
2023-05-10T22:02:03.656Z,41.60
2023-05-10T22:04:30.723Z,37.70
2023-05-10T22:06:58.221Z,37.10
2023-05-10T22:09:25.432Z,42.43
2023-05-10T22:11:52.401Z,46.17
2023-05-10T22:14:19.360Z,43.60
2023-05-10T22:16:46.341Z,45.80
2023-05-10T22:19:13.323Z,45.13
2023-05-10T22:21:40.277Z,52.20
2023-05-10T22:24:07.425Z,48.43
2023-05-10T22:26:34.334Z,52.40
2023-05-10T22:29:01.286Z,47.30
2023-05-10T22:31:28.207Z,44.65
2023-05-10T22:33:55.411Z,47.33
2023-05-10T22:36:22.334Z,62.37
2023-05-10T22:38:49.328Z,59.33
2023-05-10T22:41:16.638Z,52.50
2023-05-10T22:43:44.875Z,59.37
2023-05-10T22:46:12.210Z,56.97
2023-05-10T22:48:39.791Z,59.90
2023-05-10T22:51:06.715Z,53.10
2023-05-10T22:53:33.668Z,55.83
2023-05-10T22:56:00.972Z,58.87
2023-05-10T22:58:28.119Z,60.40
2023-05-10T23:00:55.669Z,59.37
2023-05-10T23:03:22.758Z,64.20
2023-05-10T23:05:49.666Z,63.93
2023-05-10T23:08:16.841Z,70.07
2023-05-10T23:10:43.697Z,64.33
2023-05-10T23:13:10.625Z,62.40
2023-05-10T23:15:37.815Z,56.40
2023-05-10T23:18:05.937Z,59.47
2023-05-10T23:20:33.142Z,68.47
2023-05-10T23:23:00.128Z,67.90
2023-05-10T23:25:27.165Z,72.33
2023-05-10T23:27:54.163Z,77.93
2023-05-10T23:30:21.221Z,71.03
2023-05-10T23:32:48.345Z,75.67
2023-05-10T23:35:15.566Z,75.23
2023-05-10T23:37:43.022Z,76.93
2023-05-10T23:40:10.386Z,84.27
2023-05-10T23:42:37.336Z,74.67
2023-05-10T23:45:04.712Z,82.40
2023-05-10T23:47:31.782Z,93.43
2023-05-10T23:49:58.895Z,85.63
2023-05-10T23:52:25.957Z,90.77
2023-05-10T23:54:53.735Z,86.40
2023-05-10T23:57:20.869Z,82.37
2023-05-10T23:59:47.953Z,91.13
